createdAt,value
2018-10-17T00:00:22.368Z,59.50
2018-10-17T00:02:51.201Z,61.43
2018-10-17T00:05:20.057Z,54.90
2018-10-17T00:07:48.921Z,62.40
2018-10-17T00:10:18.107Z,48.63
2018-10-17T00:12:46.910Z,48.63
2018-10-17T00:15:15.805Z,51.60
2018-10-17T00:17:44.666Z,58.40
2018-10-17T00:20:13.503Z,50.20
2018-10-17T00:22:42.334Z,58.20
2018-10-17T00:25:11.336Z,49.70
2018-10-17T00:27:40.172Z,52.53
2018-10-17T00:30:11.074Z,51.07
2018-10-17T00:32:39.961Z,56.60
2018-10-17T00:35:09.793Z,49.13
2018-10-17T00:37:38.652Z,47.73
2018-10-17T00:40:07.750Z,47.47
2018-10-17T00:42:36.842Z,54.17
2018-10-17T00:45:06.626Z,51.80
2018-10-17T00:47:35.584Z,44.00
2018-10-17T00:50:04.501Z,49.67
2018-10-17T00:52:33.387Z,46.00
2018-10-17T00:55:02.401Z,47.70
2018-10-17T00:57:31.225Z,50.97
2018-10-17T01:00:00.113Z,42.47
2018-10-17T01:02:28.974Z,45.63
2018-10-17T01:04:57.834Z,49.53
2018-10-17T01:07:26.634Z,46.83
2018-10-17T01:09:55.594Z,43.87
2018-10-17T01:12:24.431Z,42.33
2018-10-17T01:14:54.493Z,44.67
2018-10-17T01:17:24.071Z,51.97
2018-10-17T01:19:53.066Z,56.90
2018-10-17T01:22:21.967Z,65.33
2018-10-17T01:24:50.794Z,59.93
2018-10-17T01:27:19.705Z,70.87
2018-10-17T01:29:50.847Z,74.10
2018-10-17T01:32:19.715Z,55.93
2018-10-17T01:34:48.583Z,63.93
2018-10-17T01:37:17.412Z,65.97
2018-10-17T01:39:46.363Z,59.30
2018-10-17T01:42:15.356Z,62.20
2018-10-17T01:44:45.174Z,52.47
2018-10-17T01:47:14.217Z,50.57
2018-10-17T01:49:43.183Z,48.33
2018-10-17T01:52:11.923Z,73.07
2018-10-17T01:54:40.777Z,56.73
2018-10-17T01:57:09.725Z,55.70
2018-10-17T01:59:38.568Z,56.53
2018-10-17T02:02:07.530Z,58.53
2018-10-17T02:04:36.334Z,60.00
2018-10-17T02:07:05.420Z,61.90
2018-10-17T02:09:34.324Z,56.90
2018-10-17T02:12:03.248Z,60.40
2018-10-17T02:14:32.060Z,59.63
2018-10-17T02:17:01.306Z,55.23
2018-10-17T02:19:30.153Z,60.03
2018-10-17T02:21:59.153Z,62.63
2018-10-17T02:24:27.962Z,61.10
2018-10-17T02:26:56.806Z,58.03
2018-10-17T02:29:25.640Z,62.97
2018-10-17T02:31:54.570Z,55.10
2018-10-17T02:34:23.407Z,62.07
2018-10-17T02:36:52.355Z,57.90
2018-10-17T02:39:21.376Z,60.17
2018-10-17T02:41:50.214Z,67.83
2018-10-17T02:44:19.083Z,66.07
2018-10-17T02:46:47.936Z,65.13
2018-10-17T02:49:16.831Z,70.80
2018-10-17T02:51:45.659Z,76.73
2018-10-17T02:54:14.526Z,72.77
2018-10-17T02:56:43.370Z,68.13
2018-10-17T02:59:12.299Z,66.03
2018-10-17T03:01:41.573Z,74.67
2018-10-17T03:04:10.413Z,84.37
2018-10-17T03:06:39.194Z,63.37
2018-10-17T03:09:09.111Z,67.83
2018-10-17T03:11:37.837Z,57.60
2018-10-17T03:14:06.683Z,62.60
2018-10-17T03:16:35.603Z,49.00
2018-10-17T03:19:04.506Z,69.53
2018-10-17T03:21:33.458Z,61.17
2018-10-17T03:24:02.309Z,62.77
2018-10-17T03:26:31.514Z,57.57
2018-10-17T03:29:00.374Z,51.80
2018-10-17T03:31:29.314Z,50.17
2018-10-17T03:33:58.135Z,55.27
2018-10-17T03:36:26.973Z,62.67
2018-10-17T03:38:55.943Z,66.63
2018-10-17T03:41:24.760Z,67.07
2018-10-17T03:43:53.607Z,57.67
2018-10-17T03:46:22.503Z,61.40
2018-10-17T03:48:52.291Z,62.23
2018-10-17T03:51:21.569Z,62.77
2018-10-17T03:53:50.576Z,56.00
2018-10-17T03:56:19.748Z,58.87
2018-10-17T03:58:48.854Z,67.77
2018-10-17T04:01:19.395Z,55.03
2018-10-17T04:03:48.997Z,58.67
2018-10-17T04:09:09.094Z,60.87
2018-10-17T04:11:37.875Z,60.73
2018-10-17T04:14:06.727Z,63.10
2018-10-17T04:16:35.612Z,54.77
2018-10-17T04:19:04.560Z,56.87
2018-10-17T04:21:33.463Z,58.60
2018-10-17T04:24:02.405Z,63.43
2018-10-17T04:26:31.300Z,58.00
2018-10-17T04:29:00.154Z,75.80
2018-10-17T04:31:29.001Z,60.23
2018-10-17T04:33:57.857Z,63.13
2018-10-17T04:36:26.759Z,61.93
2018-10-17T04:38:56.759Z,59.47
2018-10-17T04:41:25.622Z,61.20
2018-10-17T04:43:54.376Z,60.30
2018-10-17T04:46:23.265Z,63.50
2018-10-17T04:48:52.260Z,60.73
2018-10-17T04:51:21.066Z,60.80
2018-10-17T04:53:49.943Z,67.23
2018-10-17T04:56:18.763Z,66.77
2018-10-17T04:58:47.612Z,61.30
2018-10-17T05:01:16.504Z,60.17
2018-10-17T05:03:45.410Z,58.53
2018-10-17T05:06:14.332Z,59.80
2018-10-17T05:08:43.250Z,65.33
2018-10-17T05:11:12.165Z,69.07
2018-10-17T05:13:42.832Z,64.47
2018-10-17T05:16:11.664Z,66.83
2018-10-17T05:18:40.630Z,58.67
2018-10-17T05:21:09.441Z,65.27
2018-10-17T05:23:38.527Z,69.67
2018-10-17T05:26:07.398Z,62.60
2018-10-17T05:28:36.232Z,74.90
2018-10-17T05:31:05.296Z,74.30
2018-10-17T05:33:34.273Z,70.83
2018-10-17T05:36:03.191Z,75.50
2018-10-17T05:38:32.106Z,67.20
2018-10-17T05:41:01.054Z,75.30
2018-10-17T05:43:30.106Z,56.43
2018-10-17T05:45:59.080Z,57.47
2018-10-17T05:48:28.779Z,55.60
2018-10-17T05:50:57.623Z,50.73
2018-10-17T05:53:26.503Z,60.63
2018-10-17T05:55:55.347Z,55.80
2018-10-17T05:58:24.303Z,52.93
2018-10-17T06:00:53.203Z,56.10
2018-10-17T06:03:22.059Z,48.70
2018-10-17T06:05:51.070Z,52.10
2018-10-17T06:08:19.959Z,52.17
2018-10-17T06:10:48.771Z,55.70
2018-10-17T06:13:17.614Z,53.53
2018-10-17T06:15:46.414Z,50.53
2018-10-17T06:18:15.180Z,52.50
2018-10-17T06:20:44.142Z,52.43
2018-10-17T06:23:13.142Z,51.73
2018-10-17T06:28:47.090Z,51.77
2018-10-17T06:31:15.836Z,48.03
2018-10-17T06:33:44.337Z,52.20
2018-10-17T06:36:12.947Z,52.83
2018-10-17T06:38:41.500Z,44.17
2018-10-17T06:41:10.253Z,50.70
2018-10-17T06:43:38.821Z,45.77
2018-10-17T06:46:07.313Z,41.80
2018-10-17T06:48:38.391Z,42.57
2018-10-17T06:51:07.035Z,47.80
2018-10-17T06:53:35.572Z,41.73
2018-10-17T06:56:04.170Z,39.70
2018-10-17T06:58:32.786Z,37.83
2018-10-17T07:01:01.625Z,43.03
2018-10-17T07:03:31.049Z,42.63
2018-10-17T07:06:01.396Z,42.33
2018-10-17T07:08:31.754Z,39.27
2018-10-17T07:11:01.177Z,40.10
2018-10-17T07:13:31.459Z,41.30
2018-10-17T07:16:01.764Z,41.30
2018-10-17T07:18:31.406Z,40.67
2018-10-17T07:21:01.473Z,40.60
2018-10-17T07:23:30.964Z,35.33
2018-10-17T07:26:01.076Z,35.00
2018-10-17T07:28:30.895Z,37.63
2018-10-17T07:31:01.246Z,36.40
2018-10-17T07:33:30.812Z,33.93
2018-10-17T07:36:01.766Z,32.53
2018-10-17T07:38:32.486Z,36.47
2018-10-17T07:41:01.851Z,37.90
2018-10-17T07:43:34.280Z,33.33
2018-10-17T07:46:03.900Z,34.23
2018-10-17T07:48:33.428Z,34.37
2018-10-17T07:51:03.558Z,33.77
2018-10-17T07:53:32.477Z,33.80
2018-10-17T07:56:01.732Z,32.37
2018-10-17T07:58:30.784Z,32.40
2018-10-17T08:00:59.971Z,33.60
2018-10-17T08:03:31.098Z,36.57
2018-10-17T08:05:59.990Z,35.30
2018-10-17T08:08:29.611Z,33.27
2018-10-17T08:11:00.052Z,36.43
2018-10-17T08:13:29.590Z,37.17
2018-10-17T08:16:00.312Z,38.43
2018-10-17T08:18:31.639Z,36.00
2018-10-17T08:21:01.467Z,38.60
2018-10-17T08:23:30.883Z,37.83
2018-10-17T08:25:59.959Z,39.50
2018-10-17T08:28:29.465Z,37.17
2018-10-17T08:30:58.834Z,38.33
2018-10-17T08:33:30.287Z,37.00
2018-10-17T08:35:59.864Z,36.00
2018-10-17T08:38:29.231Z,35.57
2018-10-17T08:40:58.707Z,36.30
2018-10-17T08:43:28.011Z,35.83
2018-10-17T08:45:57.082Z,36.33
2018-10-17T08:48:27.753Z,35.53
2018-10-17T08:50:57.615Z,33.40
2018-10-17T08:53:27.758Z,33.73
2018-10-17T08:55:56.960Z,34.57
2018-10-17T08:58:25.802Z,35.07
2018-10-17T09:00:54.694Z,34.43
2018-10-17T09:03:24.700Z,31.67
2018-10-17T09:05:53.763Z,36.07
2018-10-17T09:08:24.806Z,34.43
2018-10-17T09:10:53.852Z,37.10
2018-10-17T09:13:24.809Z,38.10
2018-10-17T09:15:53.762Z,34.03
2018-10-17T09:18:22.652Z,36.87
2018-10-17T09:20:52.430Z,37.20
2018-10-17T09:23:21.644Z,35.23
2018-10-17T09:25:52.842Z,35.20
2018-10-17T09:28:21.709Z,38.43
2018-10-17T09:30:50.560Z,39.07
2018-10-17T09:33:19.418Z,37.33
2018-10-17T09:35:48.370Z,36.13
2018-10-17T09:38:17.415Z,36.70
2018-10-17T09:40:46.349Z,37.23
2018-10-17T09:43:15.558Z,36.77
2018-10-17T09:45:44.485Z,37.57
2018-10-17T09:48:13.477Z,38.73
2018-10-17T09:50:42.253Z,37.20
2018-10-17T09:53:12.293Z,38.97
2018-10-17T09:55:41.516Z,37.00
2018-10-17T09:58:10.317Z,37.47
2018-10-17T10:00:44.339Z,38.47
2018-10-17T10:03:13.174Z,40.47
2018-10-17T10:05:42.028Z,39.80
2018-10-17T10:08:10.858Z,39.93
2018-10-17T10:10:40.144Z,39.87
2018-10-17T10:13:09.082Z,40.33
2018-10-17T10:15:38.306Z,39.43
2018-10-17T10:18:07.250Z,41.00
2018-10-17T10:20:36.110Z,41.97
2018-10-17T10:23:05.116Z,41.30
2018-10-17T10:25:34.033Z,42.10
2018-10-17T10:28:03.652Z,36.57
2018-10-17T10:30:32.529Z,37.90
2018-10-17T10:33:02.327Z,37.47
2018-10-17T10:35:34.711Z,37.37
2018-10-17T10:38:03.686Z,38.03
2018-10-17T10:40:32.590Z,40.10
2018-10-17T10:43:01.856Z,36.87
2018-10-17T10:45:31.111Z,36.17
2018-10-17T10:48:00.130Z,37.67
2018-10-17T10:50:28.871Z,42.07
2018-10-17T10:52:57.779Z,36.43
2018-10-17T10:55:26.611Z,38.70
2018-10-17T10:57:55.901Z,35.33
2018-10-17T11:00:24.695Z,39.73
2018-10-17T11:02:53.574Z,40.50
2018-10-17T11:05:22.542Z,40.80
2018-10-17T11:07:51.332Z,41.33
2018-10-17T11:10:20.427Z,36.77
2018-10-17T11:12:49.327Z,40.00
2018-10-17T11:15:18.299Z,41.23
2018-10-17T11:17:47.578Z,36.30
2018-10-17T11:20:16.455Z,40.03
2018-10-17T11:22:45.277Z,39.13
2018-10-17T11:25:14.125Z,40.43
2018-10-17T11:27:42.911Z,36.97
2018-10-17T11:30:12.514Z,38.40
2018-10-17T11:32:41.636Z,35.33
2018-10-17T11:35:11.684Z,36.97
2018-10-17T11:37:40.415Z,35.90
2018-10-17T11:40:09.611Z,34.37
2018-10-17T11:42:38.354Z,38.00
2018-10-17T11:45:07.299Z,36.93
2018-10-17T11:47:36.851Z,36.73
2018-10-17T11:50:07.533Z,36.77
2018-10-17T11:52:36.440Z,37.33
2018-10-17T11:55:06.512Z,39.27
2018-10-17T11:57:35.389Z,38.70
2018-10-17T12:00:04.530Z,38.13
2018-10-17T12:02:33.477Z,36.63
2018-10-17T12:05:03.829Z,39.50
2018-10-17T12:07:32.589Z,38.40
2018-10-17T12:10:01.513Z,38.60
2018-10-17T12:12:30.278Z,39.33
2018-10-17T12:14:59.256Z,37.33
2018-10-17T12:17:28.223Z,36.70
2018-10-17T12:19:58.223Z,36.37
2018-10-17T12:22:27.076Z,33.47
2018-10-17T12:24:56.012Z,37.17
2018-10-17T12:27:24.930Z,36.47
2018-10-17T12:29:54.185Z,38.87
2018-10-17T12:32:23.133Z,35.13
2018-10-17T12:34:52.101Z,38.07
2018-10-17T12:37:20.978Z,37.77
2018-10-17T12:39:49.869Z,35.57
2018-10-17T12:42:18.763Z,34.77
2018-10-17T12:44:49.571Z,33.87
2018-10-17T12:47:18.465Z,35.50
2018-10-17T12:49:47.322Z,34.90
2018-10-17T12:52:16.370Z,35.90
2018-10-17T12:54:45.170Z,30.30
2018-10-17T12:57:15.415Z,31.90
2018-10-17T12:59:49.802Z,32.30
2018-10-17T13:02:18.667Z,30.70
2018-10-17T13:04:47.894Z,31.40
2018-10-17T13:07:16.904Z,28.23
2018-10-17T13:09:45.704Z,27.80
2018-10-17T13:12:14.535Z,27.67
2018-10-17T13:14:43.576Z,29.10
2018-10-17T13:17:12.492Z,26.67
2018-10-17T13:19:41.390Z,28.10
2018-10-17T13:22:11.432Z,30.47
2018-10-17T13:24:40.677Z,32.13
2018-10-17T13:27:09.523Z,33.70
2018-10-17T13:29:38.386Z,32.80
2018-10-17T13:32:07.222Z,32.23
2018-10-17T13:34:36.122Z,33.17
2018-10-17T13:37:05.316Z,28.40
2018-10-17T13:39:34.135Z,30.00
2018-10-17T13:42:03.012Z,31.77
2018-10-17T13:44:31.767Z,30.87
2018-10-17T13:47:01.021Z,30.93
2018-10-17T13:49:29.845Z,29.30
2018-10-17T13:51:58.810Z,26.50
2018-10-17T13:54:27.602Z,29.50
2018-10-17T13:56:56.465Z,27.83
2018-10-17T13:59:25.451Z,28.17
2018-10-17T14:01:54.271Z,27.17
2018-10-17T14:04:23.104Z,28.77
2018-10-17T14:09:43.032Z,25.87
2018-10-17T14:12:11.950Z,27.57
2018-10-17T14:14:41.262Z,27.60
2018-10-17T14:17:10.155Z,29.20
2018-10-17T14:19:39.112Z,29.33
2018-10-17T14:22:08.940Z,27.47
2018-10-17T14:24:37.803Z,28.27
2018-10-17T14:27:07.392Z,32.63
2018-10-17T14:29:36.464Z,28.43
2018-10-17T14:32:06.431Z,27.47
2018-10-17T14:34:35.520Z,29.23
2018-10-17T14:37:04.430Z,28.83
2018-10-17T14:39:33.337Z,29.07
2018-10-17T14:42:02.240Z,27.33
2018-10-17T14:44:31.365Z,29.00
2018-10-17T14:47:00.241Z,27.30
2018-10-17T14:49:29.560Z,30.27
2018-10-17T14:51:58.339Z,29.20
2018-10-17T14:54:27.218Z,28.70
2018-10-17T14:56:56.040Z,30.23
2018-10-17T14:59:24.937Z,27.60
2018-10-17T15:01:54.237Z,29.07
2018-10-17T15:04:23.148Z,30.37
2018-10-17T15:06:52.016Z,28.70
2018-10-17T15:09:20.912Z,28.17
2018-10-17T15:11:50.079Z,27.33
2018-10-17T15:14:18.744Z,25.37
2018-10-17T15:16:48.386Z,22.93
2018-10-17T15:19:17.240Z,21.27
2018-10-17T15:21:46.168Z,20.50
2018-10-17T15:24:15.161Z,20.17
2018-10-17T15:26:44.226Z,20.13
2018-10-17T15:29:13.028Z,19.50
2018-10-17T15:31:41.893Z,20.83
2018-10-17T15:34:10.827Z,21.53
2018-10-17T15:36:39.647Z,18.93
2018-10-17T15:39:10.128Z,18.67
2018-10-17T15:41:39.100Z,18.77
2018-10-17T15:44:08.463Z,19.13
2018-10-17T15:46:37.560Z,19.10
2018-10-17T15:49:07.107Z,18.77
2018-10-17T15:51:35.997Z,19.20
2018-10-17T15:54:05.449Z,19.93
2018-10-17T15:56:34.254Z,19.23
2018-10-17T15:59:03.080Z,20.40
2018-10-17T16:01:31.935Z,20.67
2018-10-17T16:04:00.881Z,18.63
2018-10-17T16:06:30.171Z,18.60
2018-10-17T16:08:58.984Z,18.87
2018-10-17T16:11:28.234Z,19.17
2018-10-17T16:13:57.562Z,19.90
2018-10-17T16:16:26.681Z,21.63
2018-10-17T16:18:56.416Z,22.30
2018-10-17T16:21:25.769Z,23.77
2018-10-17T16:23:55.768Z,20.00
2018-10-17T16:26:25.052Z,18.07
2018-10-17T16:29:01.629Z,21.10
2018-10-17T16:31:37.825Z,20.63
2018-10-17T16:34:09.087Z,18.50
2018-10-17T16:36:37.816Z,23.07
2018-10-17T16:39:09.693Z,21.93
2018-10-17T16:41:39.308Z,22.60
2018-10-17T16:44:08.768Z,24.63
2018-10-17T16:46:38.324Z,23.67
2018-10-17T16:49:08.102Z,24.53
2018-10-17T16:51:37.190Z,23.97
2018-10-17T16:54:06.271Z,24.80
2018-10-17T16:56:35.190Z,28.87
2018-10-17T16:59:04.710Z,30.83
2018-10-17T17:01:33.559Z,26.60
2018-10-17T17:04:03.600Z,29.07
2018-10-17T17:06:32.723Z,25.90
2018-10-17T17:09:02.593Z,38.33
2018-10-17T17:11:33.979Z,27.70
2018-10-17T17:14:02.923Z,25.60
2018-10-17T17:16:31.932Z,28.20
2018-10-17T17:19:02.857Z,30.00
2018-10-17T17:21:31.851Z,27.67
2018-10-17T17:24:00.682Z,27.30
2018-10-17T17:26:29.579Z,26.20
2018-10-17T17:28:58.443Z,34.57
2018-10-17T17:31:27.700Z,30.67
2018-10-17T17:33:56.555Z,30.07
2018-10-17T17:36:25.540Z,34.33
2018-10-17T17:38:54.366Z,34.70
2018-10-17T17:41:24.061Z,32.77
2018-10-17T17:43:52.959Z,35.30
2018-10-17T17:46:24.037Z,45.43
2018-10-17T17:48:52.943Z,36.27
2018-10-17T17:51:22.119Z,30.43
2018-10-17T17:53:51.020Z,39.03
2018-10-17T17:56:19.886Z,49.90
2018-10-17T17:58:48.908Z,38.97
2018-10-17T18:01:18.645Z,38.37
2018-10-17T18:03:47.952Z,31.20
2018-10-17T18:06:16.840Z,39.63
2018-10-17T18:08:45.777Z,39.07
2018-10-17T18:11:23.152Z,46.00
2018-10-17T18:13:53.144Z,46.00
2018-10-17T18:16:22.041Z,41.83
2018-10-17T18:18:50.873Z,37.73
2018-10-17T18:21:19.697Z,36.10
2018-10-17T18:23:48.523Z,39.97
2018-10-17T18:26:17.364Z,38.23
2018-10-17T18:28:46.577Z,40.93
2018-10-17T18:31:15.368Z,40.90
2018-10-17T18:33:44.318Z,41.07
2018-10-17T18:36:23.839Z,40.93
2018-10-17T18:38:52.916Z,41.03
2018-10-17T18:41:21.832Z,42.20
2018-10-17T18:43:51.152Z,40.60
2018-10-17T18:46:22.579Z,46.00
2018-10-17T18:48:52.238Z,48.77
2018-10-17T18:51:21.134Z,48.50
2018-10-17T18:53:50.016Z,44.80
2018-10-17T18:56:19.016Z,40.53
2018-10-17T18:58:47.869Z,48.77
2018-10-17T19:01:17.304Z,47.70
2018-10-17T19:03:46.484Z,52.20
2018-10-17T19:06:15.623Z,44.60
2018-10-17T19:08:44.971Z,44.20
2018-10-17T19:11:16.298Z,46.77
2018-10-17T19:13:47.456Z,48.40
2018-10-17T19:16:16.435Z,57.83
2018-10-17T19:18:46.315Z,45.40
2018-10-17T19:21:15.970Z,48.30
2018-10-17T19:23:44.902Z,51.40
2018-10-17T19:26:14.311Z,57.30
2018-10-17T19:28:43.613Z,50.00
2018-10-17T19:31:12.884Z,53.43
2018-10-17T19:33:42.201Z,52.70
2018-10-17T19:36:11.130Z,48.13
2018-10-17T19:38:39.930Z,51.23
2018-10-17T19:41:09.074Z,59.10
2018-10-17T19:43:38.095Z,73.13
2018-10-17T19:46:07.943Z,96.97
2018-10-17T19:48:39.834Z,93.00
2018-10-17T19:51:08.777Z,75.33
2018-10-17T19:53:38.232Z,79.53
2018-10-17T19:56:07.134Z,74.50
2018-10-17T19:58:39.171Z,66.23
2018-10-17T20:01:08.122Z,58.23
2018-10-17T20:03:36.973Z,60.33
2018-10-17T20:06:06.193Z,60.20
2018-10-17T20:08:36.534Z,62.53
2018-10-17T20:11:05.605Z,54.30
2018-10-17T20:13:34.644Z,55.63
2018-10-17T20:16:03.565Z,54.70
2018-10-17T20:18:32.378Z,53.87
2018-10-17T20:21:01.703Z,56.60
2018-10-17T20:23:30.516Z,47.77
2018-10-17T20:25:59.737Z,56.57
2018-10-17T20:28:28.697Z,57.10
2018-10-17T20:31:38.553Z,53.27
2018-10-17T20:34:08.107Z,62.13
2018-10-17T20:36:36.947Z,49.73
2018-10-17T20:39:09.719Z,55.07
2018-10-17T20:41:38.878Z,56.63
2018-10-17T20:44:07.770Z,51.07
2018-10-17T20:46:37.419Z,59.53
2018-10-17T20:49:06.863Z,51.07
2018-10-17T20:51:35.819Z,57.37
2018-10-17T20:54:04.718Z,57.80
2018-10-17T20:56:34.036Z,59.97
2018-10-17T20:59:02.887Z,57.37
2018-10-17T21:01:32.047Z,59.93
2018-10-17T21:04:00.844Z,64.67
2018-10-17T21:06:29.790Z,58.93
2018-10-17T21:08:58.580Z,61.63
2018-10-17T21:11:27.541Z,70.37
2018-10-17T21:13:56.365Z,64.90
2018-10-17T21:16:26.440Z,79.67
2018-10-17T21:18:55.533Z,77.23
2018-10-17T21:21:24.596Z,70.43
2018-10-17T21:23:53.396Z,67.97
2018-10-17T21:26:23.479Z,87.23
2018-10-17T21:28:55.025Z,96.17
2018-10-17T21:31:28.012Z,119.77
2018-10-17T21:33:58.746Z,76.93
2018-10-17T21:36:27.787Z,82.10
2018-10-17T21:38:57.447Z,99.30
2018-10-17T21:41:26.268Z,101.13
2018-10-17T21:43:55.290Z,74.43
2018-10-17T21:46:25.681Z,99.77
2018-10-17T21:48:55.771Z,93.90
2018-10-17T21:51:24.685Z,82.30
2018-10-17T21:53:54.913Z,95.73
2018-10-17T21:56:23.740Z,95.87
2018-10-17T21:58:53.594Z,87.23
2018-10-17T22:01:22.527Z,105.23
2018-10-17T22:03:51.355Z,102.23
2018-10-17T22:06:20.195Z,124.00
2018-10-17T22:08:49.123Z,158.10
2018-10-17T22:11:18.003Z,144.90
2018-10-17T22:13:46.904Z,139.47
2018-10-17T22:16:15.978Z,140.07
2018-10-17T22:18:46.350Z,99.60
2018-10-17T22:21:15.219Z,99.17
2018-10-17T22:23:44.232Z,89.17
2018-10-17T22:26:13.226Z,106.57
2018-10-17T22:28:42.506Z,99.03
2018-10-17T22:31:11.274Z,106.27
2018-10-17T22:33:40.141Z,97.43
2018-10-17T22:36:09.445Z,112.40
2018-10-17T22:38:38.421Z,99.17
2018-10-17T22:41:07.754Z,101.80
2018-10-17T22:43:37.097Z,95.80
2018-10-17T22:46:06.251Z,102.07
2018-10-17T22:48:35.115Z,95.67
2018-10-17T22:51:03.963Z,108.33
2018-10-17T22:53:32.803Z,92.70
2018-10-17T22:56:01.663Z,101.97
2018-10-17T22:58:30.551Z,111.30
2018-10-17T23:00:59.418Z,96.37
2018-10-17T23:03:29.008Z,103.07
2018-10-17T23:05:57.837Z,105.83
2018-10-17T23:08:27.022Z,94.87
2018-10-17T23:10:55.951Z,94.23
2018-10-17T23:13:24.799Z,113.90
2018-10-17T23:15:53.752Z,196.40
2018-10-17T23:18:22.617Z,252.70
2018-10-17T23:20:51.471Z,229.10
2018-10-17T23:23:20.368Z,110.47
2018-10-17T23:25:49.121Z,163.77
2018-10-17T23:28:18.052Z,110.70
2018-10-17T23:30:46.902Z,110.03
2018-10-17T23:33:15.681Z,108.60
2018-10-17T23:35:44.538Z,119.77
2018-10-17T23:38:13.482Z,193.30
2018-10-17T23:40:42.335Z,329.10
2018-10-17T23:43:11.458Z,212.13
2018-10-17T23:45:40.505Z,248.83
2018-10-17T23:48:10.267Z,396.50
2018-10-17T23:50:39.730Z,124.97
2018-10-17T23:53:10.177Z,389.07
2018-10-17T23:55:39.050Z,358.73
2018-10-17T23:58:07.962Z,257.63
